PAA825 NSTU-NFFN
Flight info
| Callsign | PAA825 |
|---|---|
| Flight time | 1h 45m |
| Altitude | 34000 |
| Route | BIGEK G224 NN |
| Aircraft | B741/H-SDFHIRWXY/L |
Departure
| Time | 2026-04-26 20:43 |
|---|---|
| Airport | Pago Pago International Airport (NSTU) |
Arrival
| Time | 2026-04-26 22:29 |
|---|---|
| Airport | Nadi International Airport (NFFN) |
| Time | Latitude | Longitude | Altitude | Speed | Heading |
|---|---|---|---|---|---|
| 2026-04-26 20:09 | -14.32791 | -170.71280 | 29 ft | 0 kts | 184° |
| 2026-04-26 20:37 | -14.32793 | -170.71280 | 28 ft | 0 kts | 181° |
| 2026-04-26 20:37 | -14.32807 | -170.71269 | 29 ft | 5 kts | 111° |
| 2026-04-26 20:38 | -14.32810 | -170.71216 | 28 ft | 7 kts | 91° |
| 2026-04-26 20:38 | -14.32827 | -170.71173 | 29 ft | 6 kts | 131° |
| 2026-04-26 20:38 | -14.32869 | -170.71156 | 29 ft | 7 kts | 191° |
| 2026-04-26 20:38 | -14.32925 | -170.71194 | 28 ft | 13 kts | 217° |
| 2026-04-26 20:39 | -14.33028 | -170.71240 | 26 ft | 17 kts | 185° |
| 2026-04-26 20:39 | -14.33151 | -170.71254 | 25 ft | 18 kts | 193° |
| 2026-04-26 20:39 | -14.33254 | -170.71333 | 26 ft | 18 kts | 237° |
| 2026-04-26 20:39 | -14.33317 | -170.71443 | 29 ft | 16 kts | 240° |
| 2026-04-26 20:40 | -14.33371 | -170.71541 | 31 ft | 14 kts | 240° |
| 2026-04-26 20:40 | -14.33425 | -170.71637 | 34 ft | 17 kts | 240° |
| 2026-04-26 20:40 | -14.33484 | -170.71742 | 38 ft | 15 kts | 241° |
| 2026-04-26 20:40 | -14.33533 | -170.71832 | 40 ft | 14 kts | 242° |
| 2026-04-26 20:41 | -14.33573 | -170.71942 | 43 ft | 18 kts | 255° |
| 2026-04-26 20:41 | -14.33618 | -170.72081 | 45 ft | 21 kts | 241° |
| 2026-04-26 20:41 | -14.33688 | -170.72206 | 47 ft | 19 kts | 240° |
| 2026-04-26 20:41 | -14.33753 | -170.72313 | 47 ft | 12 kts | 224° |
| 2026-04-26 20:42 | -14.33829 | -170.72299 | 45 ft | 12 kts | 149° |
| 2026-04-26 20:42 | -14.33889 | -170.72253 | 44 ft | 8 kts | 97° |
| 2026-04-26 20:42 | -14.33881 | -170.72224 | 44 ft | 0 kts | 58° |
| 2026-04-26 20:42 | -14.33877 | -170.72218 | 44 ft | 6 kts | 58° |
| 2026-04-26 20:43 | -14.33733 | -170.71964 | 43 ft | 77 kts | 60° |
| 2026-04-26 20:43 | -14.33344 | -170.71269 | 25 ft | 143 kts | 60° |
| 2026-04-26 20:43 | -14.32777 | -170.70268 | 331 ft | 170 kts | 62° |
| 2026-04-26 20:43 | -14.32405 | -170.69192 | 1163 ft | 157 kts | 92° |
| 2026-04-26 20:44 | -14.32878 | -170.68219 | 1779 ft | 169 kts | 137° |
| 2026-04-26 20:44 | -14.34085 | -170.67786 | 2064 ft | 201 kts | 175° |
| 2026-04-26 20:44 | -14.35516 | -170.68082 | 2332 ft | 216 kts | 191° |
| 2026-04-26 20:44 | -14.36978 | -170.68544 | 2626 ft | 224 kts | 192° |
| 2026-04-26 20:45 | -14.38539 | -170.69046 | 2839 ft | 238 kts | 193° |
| 2026-04-26 20:45 | -14.40181 | -170.69565 | 3049 ft | 253 kts | 192° |
| 2026-04-26 20:45 | -14.41901 | -170.70201 | 3252 ft | 275 kts | 208° |
| 2026-04-26 20:45 | -14.43301 | -170.71619 | 3492 ft | 299 kts | 238° |
| 2026-04-26 20:46 | -14.43940 | -170.73662 | 4184 ft | 299 kts | 259° |
| 2026-04-26 20:46 | -14.44362 | -170.75748 | 4820 ft | 299 kts | 256° |
| 2026-04-26 20:46 | -14.44852 | -170.77818 | 5469 ft | 300 kts | 256° |
| 2026-04-26 20:46 | -14.45329 | -170.79916 | 6043 ft | 304 kts | 256° |
| 2026-04-26 20:47 | -14.45791 | -170.82037 | 6662 ft | 305 kts | 257° |
| 2026-04-26 20:47 | -14.46100 | -170.83479 | 7058 ft | 306 kts | 257° |
| 2026-04-26 20:47 | -14.46710 | -170.86354 | 7820 ft | 310 kts | 257° |
| 2026-04-26 20:47 | -14.47166 | -170.88504 | 8421 ft | 311 kts | 257° |
| 2026-04-26 20:48 | -14.47628 | -170.90678 | 9010 ft | 312 kts | 257° |
| 2026-04-26 20:48 | -14.48090 | -170.92859 | 9587 ft | 314 kts | 257° |
| 2026-04-26 20:48 | -14.48560 | -170.95073 | 10135 ft | 317 kts | 257° |
| 2026-04-26 20:48 | -14.49033 | -170.97304 | 10570 ft | 325 kts | 257° |
| 2026-04-26 20:49 | -14.49526 | -170.99625 | 10809 ft | 340 kts | 257° |
| 2026-04-26 20:49 | -14.50043 | -171.02065 | 11041 ft | 356 kts | 257° |
| 2026-04-26 20:49 | -14.50584 | -171.04619 | 11272 ft | 371 kts | 257° |
| 2026-04-26 20:49 | -14.51145 | -171.07271 | 11549 ft | 384 kts | 257° |
| 2026-04-26 20:50 | -14.51706 | -171.09927 | 12214 ft | 384 kts | 257° |
| 2026-04-26 20:50 | -14.52275 | -171.12624 | 12864 ft | 384 kts | 257° |
| 2026-04-26 20:50 | -14.52844 | -171.15320 | 13427 ft | 387 kts | 257° |
| 2026-04-26 20:50 | -14.53415 | -171.18024 | 14017 ft | 390 kts | 257° |
| 2026-04-26 20:51 | -14.53999 | -171.20792 | 14585 ft | 393 kts | 257° |
| 2026-04-26 20:51 | -14.54574 | -171.23518 | 15135 ft | 397 kts | 257° |
| 2026-04-26 20:51 | -14.55166 | -171.26327 | 15693 ft | 400 kts | 257° |
| 2026-04-26 20:51 | -14.55755 | -171.29131 | 16228 ft | 403 kts | 257° |
| 2026-04-26 20:52 | -14.56349 | -171.31953 | 16802 ft | 406 kts | 258° |
| 2026-04-26 20:52 | -14.56953 | -171.34827 | 17376 ft | 408 kts | 258° |
| 2026-04-26 20:52 | -14.57553 | -171.37683 | 17864 ft | 412 kts | 258° |
| 2026-04-26 20:52 | -14.58161 | -171.40582 | 18338 ft | 417 kts | 258° |
| 2026-04-26 20:53 | -14.58778 | -171.43523 | 18883 ft | 419 kts | 258° |
| 2026-04-26 20:53 | -14.59391 | -171.46445 | 19477 ft | 420 kts | 258° |
| 2026-04-26 20:53 | -14.60008 | -171.49388 | 19976 ft | 424 kts | 258° |
| 2026-04-26 20:53 | -14.60633 | -171.52370 | 20446 ft | 428 kts | 258° |
| 2026-04-26 20:54 | -14.61263 | -171.55382 | 20994 ft | 429 kts | 258° |
| 2026-04-26 20:54 | -14.61896 | -171.58408 | 21475 ft | 432 kts | 258° |
| 2026-04-26 20:54 | -14.62528 | -171.61435 | 21943 ft | 435 kts | 258° |
| 2026-04-26 20:54 | -14.63167 | -171.64491 | 22406 ft | 438 kts | 258° |
| 2026-04-26 20:55 | -14.63823 | -171.67535 | 22806 ft | 441 kts | 256° |
| 2026-04-26 20:55 | -14.64670 | -171.70609 | 23251 ft | 444 kts | 253° |
| 2026-04-26 20:55 | -14.65610 | -171.73625 | 23713 ft | 445 kts | 252° |
| 2026-04-26 20:55 | -14.66596 | -171.76680 | 24154 ft | 448 kts | 252° |
| 2026-04-26 20:56 | -14.67569 | -171.79698 | 24541 ft | 451 kts | 252° |
| 2026-04-26 20:56 | -14.68566 | -171.82811 | 24963 ft | 453 kts | 252° |
| 2026-04-26 20:56 | -14.69543 | -171.85889 | 25367 ft | 455 kts | 252° |
| 2026-04-26 20:56 | -14.70519 | -171.88982 | 25792 ft | 457 kts | 252° |
| 2026-04-26 20:57 | -14.71507 | -171.92122 | 26190 ft | 459 kts | 252° |
| 2026-04-26 20:57 | -14.72498 | -171.95274 | 26585 ft | 461 kts | 253° |
| 2026-04-26 20:57 | -14.73486 | -171.98422 | 26955 ft | 463 kts | 253° |
| 2026-04-26 20:57 | -14.74477 | -172.01582 | 27282 ft | 466 kts | 253° |
| 2026-04-26 20:58 | -14.75472 | -172.04756 | 27628 ft | 469 kts | 253° |
| 2026-04-26 20:58 | -14.76482 | -172.07982 | 27972 ft | 471 kts | 253° |
| 2026-04-26 20:58 | -14.77486 | -172.11186 | 28285 ft | 473 kts | 253° |
| 2026-04-26 20:58 | -14.78493 | -172.14407 | 28600 ft | 475 kts | 253° |
| 2026-04-26 20:59 | -14.79506 | -172.17647 | 28917 ft | 477 kts | 253° |
| 2026-04-26 20:59 | -14.80531 | -172.20927 | 29258 ft | 478 kts | 253° |
| 2026-04-26 20:59 | -14.81544 | -172.24170 | 29581 ft | 480 kts | 253° |
| 2026-04-26 20:59 | -14.82574 | -172.27470 | 29895 ft | 481 kts | 253° |
| 2026-04-26 21:00 | -14.83596 | -172.30742 | 30177 ft | 483 kts | 253° |
| 2026-04-26 21:00 | -14.84626 | -172.34044 | 30467 ft | 484 kts | 252° |
| 2026-04-26 21:00 | -14.85660 | -172.37360 | 30743 ft | 486 kts | 253° |
| 2026-04-26 21:00 | -14.86705 | -172.40712 | 31006 ft | 488 kts | 253° |
| 2026-04-26 21:01 | -14.87732 | -172.44011 | 31287 ft | 489 kts | 253° |
| 2026-04-26 21:01 | -14.88775 | -172.47362 | 31554 ft | 491 kts | 252° |
| 2026-04-26 21:01 | -14.89830 | -172.50751 | 31897 ft | 491 kts | 253° |
| 2026-04-26 21:01 | -14.90858 | -172.54056 | 32338 ft | 489 kts | 252° |
| 2026-04-26 21:02 | -14.91894 | -172.57391 | 32765 ft | 487 kts | 252° |
| 2026-04-26 21:02 | -14.92931 | -172.60728 | 33199 ft | 486 kts | 252° |
| 2026-04-26 21:02 | -14.93958 | -172.64040 | 33630 ft | 485 kts | 252° |
| 2026-04-26 21:02 | -14.94979 | -172.67333 | 33888 ft | 487 kts | 252° |
| 2026-04-26 21:03 | -14.96026 | -172.70711 | 33938 ft | 493 kts | 252° |
| 2026-04-26 21:03 | -14.98140 | -172.77533 | 33945 ft | 502 kts | 252° |
| 2026-04-26 21:04 | -15.00240 | -172.84317 | 33942 ft | 494 kts | 252° |
| 2026-04-26 21:04 | -15.02331 | -172.91084 | 33942 ft | 494 kts | 252° |
| 2026-04-26 21:05 | -15.04419 | -172.97849 | 33943 ft | 499 kts | 252° |
| 2026-04-26 21:05 | -15.06529 | -173.04694 | 33939 ft | 494 kts | 252° |
| 2026-04-26 21:06 | -15.08601 | -173.11421 | 33944 ft | 495 kts | 252° |
| 2026-04-26 21:06 | -15.10702 | -173.18251 | 33940 ft | 497 kts | 252° |
| 2026-04-26 21:07 | -15.12781 | -173.25021 | 33943 ft | 495 kts | 252° |
| 2026-04-26 21:07 | -15.14856 | -173.31781 | 33934 ft | 497 kts | 252° |
| 2026-04-26 21:08 | -15.16949 | -173.38611 | 33924 ft | 500 kts | 252° |
| 2026-04-26 21:08 | -15.19036 | -173.45422 | 33924 ft | 497 kts | 252° |
| 2026-04-26 21:09 | -15.21115 | -173.52211 | 33923 ft | 493 kts | 252° |
| 2026-04-26 21:09 | -15.23197 | -173.59023 | 33925 ft | 497 kts | 252° |
| 2026-04-26 21:10 | -15.25272 | -173.65819 | 33926 ft | 499 kts | 253° |
| 2026-04-26 21:10 | -15.27355 | -173.72647 | 33923 ft | 498 kts | 253° |
| 2026-04-26 21:11 | -15.29433 | -173.79468 | 33923 ft | 497 kts | 253° |
| 2026-04-26 21:11 | -15.31519 | -173.86327 | 33928 ft | 498 kts | 253° |
| 2026-04-26 21:12 | -15.33584 | -173.93121 | 33931 ft | 495 kts | 253° |
| 2026-04-26 21:12 | -15.35639 | -173.99890 | 33930 ft | 493 kts | 253° |
| 2026-04-26 21:13 | -15.37685 | -174.06638 | 33932 ft | 494 kts | 253° |
| 2026-04-26 21:13 | -15.39748 | -174.13451 | 33931 ft | 495 kts | 253° |
| 2026-04-26 21:14 | -15.41802 | -174.20242 | 33934 ft | 495 kts | 253° |
| 2026-04-26 21:14 | -15.43860 | -174.27055 | 33933 ft | 494 kts | 253° |
| 2026-04-26 21:15 | -15.45894 | -174.33798 | 33933 ft | 494 kts | 253° |
| 2026-04-26 21:15 | -15.47948 | -174.40616 | 33936 ft | 492 kts | 253° |
| 2026-04-26 21:16 | -15.49972 | -174.47337 | 33934 ft | 493 kts | 253° |
| 2026-04-26 21:16 | -15.52011 | -174.54118 | 33935 ft | 494 kts | 253° |
| 2026-04-26 21:17 | -15.54041 | -174.60879 | 33934 ft | 491 kts | 253° |
| 2026-04-26 21:17 | -15.56071 | -174.67648 | 33938 ft | 491 kts | 253° |
| 2026-04-26 21:18 | -15.58093 | -174.74402 | 33935 ft | 491 kts | 253° |
| 2026-04-26 21:18 | -15.60107 | -174.81133 | 33937 ft | 492 kts | 253° |
| 2026-04-26 21:19 | -15.62129 | -174.87898 | 33936 ft | 491 kts | 253° |
| 2026-04-26 21:19 | -15.64145 | -174.94653 | 33940 ft | 492 kts | 253° |
| 2026-04-26 21:20 | -15.66158 | -175.01407 | 33944 ft | 489 kts | 253° |
| 2026-04-26 21:20 | -15.68166 | -175.08148 | 33941 ft | 489 kts | 253° |
| 2026-04-26 21:21 | -15.70164 | -175.14871 | 33939 ft | 492 kts | 253° |
| 2026-04-26 21:21 | -15.72166 | -175.21611 | 33934 ft | 487 kts | 253° |
| 2026-04-26 21:22 | -15.74160 | -175.28331 | 33927 ft | 489 kts | 253° |
| 2026-04-26 21:22 | -15.76160 | -175.35086 | 33924 ft | 491 kts | 253° |
| 2026-04-26 21:23 | -15.79147 | -175.45181 | 33925 ft | 489 kts | 253° |
| 2026-04-26 21:23 | -15.81136 | -175.51916 | 33925 ft | 490 kts | 253° |
| 2026-04-26 21:24 | -15.83127 | -175.58662 | 33929 ft | 488 kts | 253° |
| 2026-04-26 21:24 | -15.85109 | -175.65392 | 33928 ft | 488 kts | 253° |
| 2026-04-26 21:25 | -15.87094 | -175.72141 | 33924 ft | 488 kts | 253° |
| 2026-04-26 21:25 | -15.89064 | -175.78842 | 33924 ft | 489 kts | 253° |
| 2026-04-26 21:26 | -15.91062 | -175.85603 | 33925 ft | 489 kts | 253° |
| 2026-04-26 21:26 | -15.93070 | -175.92299 | 33925 ft | 488 kts | 253° |
| 2026-04-26 21:27 | -15.95092 | -175.99033 | 33925 ft | 489 kts | 253° |
| 2026-04-26 21:27 | -15.97115 | -176.05794 | 33924 ft | 487 kts | 253° |
| 2026-04-26 21:28 | -15.99111 | -176.12474 | 33926 ft | 488 kts | 253° |
| 2026-04-26 21:28 | -16.01111 | -176.19176 | 33923 ft | 487 kts | 253° |
| 2026-04-26 21:29 | -16.03113 | -176.25897 | 33926 ft | 487 kts | 253° |
| 2026-04-26 21:29 | -16.05121 | -176.32646 | 33929 ft | 490 kts | 253° |
| 2026-04-26 21:30 | -16.07116 | -176.39357 | 33931 ft | 488 kts | 253° |
| 2026-04-26 21:30 | -16.09115 | -176.46092 | 33934 ft | 489 kts | 253° |
| 2026-04-26 21:31 | -16.11129 | -176.52884 | 33933 ft | 489 kts | 253° |
| 2026-04-26 21:31 | -16.13113 | -176.59587 | 33936 ft | 489 kts | 253° |
| 2026-04-26 21:32 | -16.15120 | -176.66371 | 33939 ft | 490 kts | 254° |
| 2026-04-26 21:32 | -16.17115 | -176.73128 | 33938 ft | 489 kts | 254° |
| 2026-04-26 21:33 | -16.19107 | -176.79881 | 33940 ft | 489 kts | 254° |
| 2026-04-26 21:33 | -16.21091 | -176.86618 | 33942 ft | 492 kts | 254° |
| 2026-04-26 21:34 | -16.23092 | -176.93420 | 33943 ft | 491 kts | 254° |
| 2026-04-26 21:34 | -16.25083 | -177.00192 | 33944 ft | 489 kts | 254° |
| 2026-04-26 21:35 | -16.27069 | -177.06958 | 33945 ft | 491 kts | 254° |
| 2026-04-26 21:35 | -16.29048 | -177.13713 | 33945 ft | 491 kts | 254° |
| 2026-04-26 21:36 | -16.31035 | -177.20502 | 33945 ft | 489 kts | 254° |
| 2026-04-26 21:36 | -16.33007 | -177.27248 | 33945 ft | 490 kts | 254° |
| 2026-04-26 21:37 | -16.34988 | -177.34032 | 33945 ft | 489 kts | 254° |
| 2026-04-26 21:37 | -16.36964 | -177.40808 | 33944 ft | 489 kts | 254° |
| 2026-04-26 21:38 | -16.38925 | -177.47543 | 33945 ft | 489 kts | 254° |
| 2026-04-26 21:38 | -16.40891 | -177.54303 | 33945 ft | 489 kts | 254° |
| 2026-04-26 21:39 | -16.42855 | -177.61066 | 33944 ft | 488 kts | 254° |
| 2026-04-26 21:39 | -16.44816 | -177.67825 | 33945 ft | 489 kts | 255° |
| 2026-04-26 21:40 | -16.46778 | -177.74597 | 33944 ft | 487 kts | 255° |
| 2026-04-26 21:40 | -16.48735 | -177.81366 | 33944 ft | 487 kts | 254° |
| 2026-04-26 21:41 | -16.50674 | -177.88074 | 33942 ft | 486 kts | 254° |
| 2026-04-26 21:41 | -16.52612 | -177.94791 | 33938 ft | 486 kts | 254° |
| 2026-04-26 21:42 | -16.54568 | -178.01579 | 33937 ft | 488 kts | 255° |
| 2026-04-26 21:42 | -16.56507 | -178.08316 | 33934 ft | 487 kts | 255° |
| 2026-04-26 21:43 | -16.58444 | -178.15054 | 33933 ft | 488 kts | 255° |
| 2026-04-26 21:43 | -16.60386 | -178.21820 | 33927 ft | 487 kts | 255° |
| 2026-04-26 21:44 | -16.62318 | -178.28560 | 33924 ft | 486 kts | 255° |
| 2026-04-26 21:44 | -16.64244 | -178.35284 | 33924 ft | 486 kts | 254° |
| 2026-04-26 21:45 | -16.66174 | -178.42027 | 33924 ft | 486 kts | 255° |
| 2026-04-26 21:45 | -16.68104 | -178.48782 | 33925 ft | 486 kts | 255° |
| 2026-04-26 21:46 | -16.70026 | -178.55519 | 33923 ft | 485 kts | 255° |
| 2026-04-26 21:46 | -16.71936 | -178.62221 | 33925 ft | 486 kts | 255° |
| 2026-04-26 21:47 | -16.73859 | -178.68980 | 33924 ft | 485 kts | 255° |
| 2026-04-26 21:47 | -16.75769 | -178.75700 | 33924 ft | 485 kts | 255° |
| 2026-04-26 21:48 | -16.77679 | -178.82433 | 33924 ft | 485 kts | 255° |
| 2026-04-26 21:48 | -16.79597 | -178.89197 | 33924 ft | 484 kts | 255° |
| 2026-04-26 21:49 | -16.81488 | -178.95880 | 33925 ft | 484 kts | 255° |
| 2026-04-26 21:49 | -16.83401 | -179.02647 | 33925 ft | 485 kts | 255° |
| 2026-04-26 21:50 | -16.84974 | -179.08218 | 33924 ft | 483 kts | 255° |
| 2026-04-26 21:50 | -16.87180 | -179.16045 | 33924 ft | 484 kts | 255° |
| 2026-04-26 21:51 | -16.89086 | -179.22813 | 33925 ft | 485 kts | 255° |
| 2026-04-26 21:51 | -16.90966 | -179.29501 | 33924 ft | 482 kts | 255° |
| 2026-04-26 21:52 | -16.92851 | -179.36215 | 33927 ft | 484 kts | 255° |
| 2026-04-26 21:52 | -16.94746 | -179.42973 | 33931 ft | 484 kts | 255° |
| 2026-04-26 21:53 | -16.96623 | -179.49678 | 33935 ft | 482 kts | 255° |
| 2026-04-26 21:53 | -16.98507 | -179.56416 | 33934 ft | 485 kts | 255° |
| 2026-04-26 21:54 | -17.00392 | -179.63168 | 33934 ft | 484 kts | 255° |
| 2026-04-26 21:54 | -17.02263 | -179.69876 | 33932 ft | 483 kts | 255° |
| 2026-04-26 21:55 | -17.04141 | -179.76619 | 33931 ft | 483 kts | 255° |
| 2026-04-26 21:55 | -17.06015 | -179.83356 | 33934 ft | 483 kts | 255° |
| 2026-04-26 21:56 | -17.07883 | -179.90079 | 33934 ft | 482 kts | 255° |
| 2026-04-26 21:56 | -17.09747 | -179.96800 | 33941 ft | 484 kts | 255° |
| 2026-04-26 21:57 | -17.11612 | 179.96464 | 33946 ft | 483 kts | 256° |
| 2026-04-26 21:57 | -17.13473 | 179.89735 | 33941 ft | 483 kts | 255° |
| 2026-04-26 21:58 | -17.15347 | 179.82953 | 33943 ft | 485 kts | 256° |
| 2026-04-26 21:58 | -17.17194 | 179.76257 | 33941 ft | 483 kts | 255° |
| 2026-04-26 21:59 | -17.19058 | 179.69487 | 33944 ft | 486 kts | 256° |
| 2026-04-26 21:59 | -17.20920 | 179.62712 | 33945 ft | 483 kts | 256° |
| 2026-04-26 22:00 | -17.22764 | 179.55988 | 33942 ft | 484 kts | 256° |
| 2026-04-26 22:00 | -17.24622 | 179.49203 | 33933 ft | 486 kts | 256° |
| 2026-04-26 22:01 | -17.26471 | 179.42453 | 33926 ft | 484 kts | 256° |
| 2026-04-26 22:01 | -17.28314 | 179.35709 | 33925 ft | 486 kts | 256° |
| 2026-04-26 22:02 | -17.30172 | 179.28906 | 33921 ft | 486 kts | 256° |
| 2026-04-26 22:02 | -17.32021 | 179.22124 | 33925 ft | 486 kts | 256° |
| 2026-04-26 22:03 | -17.33874 | 179.15317 | 33921 ft | 486 kts | 256° |
| 2026-04-26 22:03 | -17.35501 | 179.08508 | 33922 ft | 485 kts | 260° |
| 2026-04-26 22:04 | -17.36828 | 179.01581 | 33924 ft | 485 kts | 259° |
| 2026-04-26 22:04 | -17.38314 | 178.94717 | 33924 ft | 485 kts | 259° |
| 2026-04-26 22:05 | -17.39729 | 178.87819 | 33712 ft | 487 kts | 260° |
| 2026-04-26 22:05 | -17.40406 | 178.84345 | 33212 ft | 494 kts | 260° |
| 2026-04-26 22:05 | -17.41081 | 178.80792 | 32518 ft | 498 kts | 261° |
| 2026-04-26 22:06 | -17.41741 | 178.77243 | 31887 ft | 496 kts | 261° |
| 2026-04-26 22:06 | -17.42382 | 178.73747 | 31264 ft | 493 kts | 261° |
| 2026-04-26 22:06 | -17.43016 | 178.70244 | 30639 ft | 494 kts | 261° |
| 2026-04-26 22:06 | -17.43655 | 178.66675 | 30005 ft | 499 kts | 261° |
| 2026-04-26 22:07 | -17.44289 | 178.63110 | 29382 ft | 503 kts | 261° |
| 2026-04-26 22:07 | -17.44923 | 178.59529 | 28738 ft | 498 kts | 261° |
| 2026-04-26 22:07 | -17.45545 | 178.56010 | 28113 ft | 490 kts | 261° |
| 2026-04-26 22:07 | -17.46159 | 178.52521 | 27488 ft | 483 kts | 261° |
| 2026-04-26 22:08 | -17.46759 | 178.49106 | 26870 ft | 476 kts | 261° |
| 2026-04-26 22:08 | -17.47349 | 178.45735 | 26285 ft | 470 kts | 261° |
| 2026-04-26 22:08 | -17.47930 | 178.42404 | 25705 ft | 465 kts | 261° |
| 2026-04-26 22:08 | -17.48511 | 178.39073 | 25116 ft | 461 kts | 261° |
| 2026-04-26 22:09 | -17.49078 | 178.35814 | 24537 ft | 456 kts | 261° |
| 2026-04-26 22:09 | -17.49635 | 178.32585 | 23960 ft | 454 kts | 261° |
| 2026-04-26 22:09 | -17.50190 | 178.29318 | 23374 ft | 450 kts | 261° |
| 2026-04-26 22:09 | -17.50732 | 178.26138 | 22800 ft | 446 kts | 261° |
| 2026-04-26 22:10 | -17.51280 | 178.22939 | 22223 ft | 442 kts | 261° |
| 2026-04-26 22:10 | -17.51817 | 178.19818 | 21695 ft | 439 kts | 261° |
| 2026-04-26 22:10 | -17.52354 | 178.16698 | 21165 ft | 435 kts | 261° |
| 2026-04-26 22:10 | -17.52891 | 178.13590 | 20635 ft | 432 kts | 261° |
| 2026-04-26 22:11 | -17.53424 | 178.10492 | 20103 ft | 429 kts | 261° |
| 2026-04-26 22:11 | -17.53947 | 178.07461 | 19583 ft | 427 kts | 261° |
| 2026-04-26 22:11 | -17.54471 | 178.04413 | 19048 ft | 422 kts | 261° |
| 2026-04-26 22:11 | -17.54988 | 178.01405 | 18524 ft | 419 kts | 261° |
| 2026-04-26 22:12 | -17.55499 | 177.98431 | 18001 ft | 416 kts | 261° |
| 2026-04-26 22:12 | -17.56008 | 177.95464 | 17468 ft | 414 kts | 261° |
| 2026-04-26 22:12 | -17.56512 | 177.92522 | 16941 ft | 411 kts | 261° |
| 2026-04-26 22:12 | -17.57015 | 177.89584 | 16406 ft | 408 kts | 261° |
| 2026-04-26 22:13 | -17.57511 | 177.86679 | 15873 ft | 406 kts | 261° |
| 2026-04-26 22:13 | -17.58004 | 177.83792 | 15353 ft | 405 kts | 261° |
| 2026-04-26 22:13 | -17.58495 | 177.80910 | 14828 ft | 402 kts | 261° |
| 2026-04-26 22:13 | -17.58989 | 177.78006 | 14290 ft | 399 kts | 261° |
| 2026-04-26 22:14 | -17.59468 | 177.75192 | 13759 ft | 397 kts | 261° |
| 2026-04-26 22:14 | -17.59953 | 177.72337 | 13214 ft | 394 kts | 261° |
| 2026-04-26 22:14 | -17.60428 | 177.69539 | 12679 ft | 391 kts | 261° |
| 2026-04-26 22:14 | -17.60901 | 177.66746 | 12147 ft | 389 kts | 261° |
| 2026-04-26 22:15 | -17.61374 | 177.63950 | 11610 ft | 387 kts | 261° |
| 2026-04-26 22:15 | -17.61836 | 177.61218 | 11077 ft | 384 kts | 261° |
| 2026-04-26 22:15 | -17.62297 | 177.58490 | 10706 ft | 375 kts | 261° |
| 2026-04-26 22:15 | -17.62744 | 177.55838 | 10330 ft | 360 kts | 261° |
| 2026-04-26 22:16 | -17.63166 | 177.53334 | 10056 ft | 342 kts | 261° |
| 2026-04-26 22:16 | -17.63566 | 177.50955 | 9960 ft | 320 kts | 261° |
| 2026-04-26 22:16 | -17.63939 | 177.48738 | 9930 ft | 297 kts | 261° |
| 2026-04-26 22:16 | -17.64280 | 177.46704 | 9933 ft | 272 kts | 261° |
| 2026-04-26 22:17 | -17.64595 | 177.44824 | 9854 ft | 259 kts | 261° |
| 2026-04-26 22:17 | -17.64907 | 177.42964 | 9617 ft | 256 kts | 259° |
| 2026-04-26 22:17 | -17.65491 | 177.41231 | 9378 ft | 253 kts | 243° |
| 2026-04-26 22:17 | -17.66387 | 177.39639 | 9147 ft | 253 kts | 234° |
| 2026-04-26 22:18 | -17.67525 | 177.38235 | 8808 ft | 256 kts | 225° |
| 2026-04-26 22:18 | -17.68875 | 177.37021 | 8421 ft | 255 kts | 219° |
| 2026-04-26 22:18 | -17.70250 | 177.35860 | 8037 ft | 255 kts | 218° |
| 2026-04-26 22:18 | -17.71646 | 177.34685 | 7653 ft | 254 kts | 219° |
| 2026-04-26 22:19 | -17.73003 | 177.33517 | 7279 ft | 253 kts | 220° |
| 2026-04-26 22:19 | -17.74347 | 177.32346 | 6892 ft | 253 kts | 220° |
| 2026-04-26 22:19 | -17.75720 | 177.31189 | 6503 ft | 252 kts | 218° |
| 2026-04-26 22:19 | -17.77105 | 177.30048 | 6114 ft | 252 kts | 218° |
| 2026-04-26 22:20 | -17.78495 | 177.28906 | 5721 ft | 251 kts | 218° |
| 2026-04-26 22:20 | -17.79848 | 177.27795 | 5324 ft | 245 kts | 218° |
| 2026-04-26 22:20 | -17.81190 | 177.26695 | 4945 ft | 245 kts | 218° |
| 2026-04-26 22:20 | -17.82530 | 177.25594 | 4558 ft | 245 kts | 218° |
| 2026-04-26 22:21 | -17.83880 | 177.24478 | 4166 ft | 246 kts | 219° |
| 2026-04-26 22:21 | -17.85211 | 177.23383 | 3803 ft | 245 kts | 218° |
| 2026-04-26 22:21 | -17.86560 | 177.22281 | 3444 ft | 245 kts | 218° |
| 2026-04-26 22:21 | -17.87913 | 177.21172 | 3111 ft | 242 kts | 218° |
| 2026-04-26 22:22 | -17.89351 | 177.20381 | 2964 ft | 233 kts | 188° |
| 2026-04-26 22:22 | -17.90937 | 177.20612 | 2931 ft | 230 kts | 149° |
| 2026-04-26 22:22 | -17.92128 | 177.21669 | 2921 ft | 225 kts | 130° |
| 2026-04-26 22:22 | -17.93127 | 177.22939 | 2905 ft | 222 kts | 114° |
| 2026-04-26 22:23 | -17.93363 | 177.24463 | 2911 ft | 215 kts | 77° |
| 2026-04-26 22:23 | -17.92904 | 177.25970 | 2916 ft | 216 kts | 68° |
| 2026-04-26 22:23 | -17.92368 | 177.27454 | 2919 ft | 217 kts | 68° |
| 2026-04-26 22:23 | -17.91839 | 177.28908 | 2918 ft | 215 kts | 68° |
| 2026-04-26 22:24 | -17.91303 | 177.30380 | 2916 ft | 212 kts | 68° |
| 2026-04-26 22:24 | -17.90779 | 177.31751 | 2900 ft | 193 kts | 57° |
| 2026-04-26 22:24 | -17.89843 | 177.32701 | 2910 ft | 185 kts | 39° |
| 2026-04-26 22:24 | -17.88836 | 177.33559 | 2720 ft | 185 kts | 39° |
| 2026-04-26 22:25 | -17.87835 | 177.34395 | 2500 ft | 181 kts | 38° |
| 2026-04-26 22:25 | -17.86871 | 177.35182 | 2299 ft | 168 kts | 38° |
| 2026-04-26 22:25 | -17.86004 | 177.35883 | 2123 ft | 152 kts | 38° |
| 2026-04-26 22:25 | -17.85191 | 177.36539 | 1865 ft | 142 kts | 38° |
| 2026-04-26 22:26 | -17.84412 | 177.37164 | 1686 ft | 138 kts | 38° |
| 2026-04-26 22:26 | -17.83658 | 177.37772 | 1545 ft | 138 kts | 38° |
| 2026-04-26 22:26 | -17.82899 | 177.38384 | 1377 ft | 137 kts | 38° |
| 2026-04-26 22:26 | -17.82134 | 177.39000 | 1210 ft | 138 kts | 38° |
| 2026-04-26 22:27 | -17.81364 | 177.39619 | 1034 ft | 139 kts | 38° |
| 2026-04-26 22:27 | -17.80594 | 177.40236 | 856 ft | 139 kts | 38° |
| 2026-04-26 22:27 | -17.79820 | 177.40854 | 667 ft | 140 kts | 38° |
| 2026-04-26 22:27 | -17.79052 | 177.41472 | 489 ft | 140 kts | 39° |
| 2026-04-26 22:28 | -17.78278 | 177.42091 | 325 ft | 141 kts | 39° |
| 2026-04-26 22:28 | -17.77497 | 177.42729 | 142 ft | 141 kts | 39° |
| 2026-04-26 22:28 | -17.76696 | 177.43370 | 52 ft | 142 kts | 39° |
| 2026-04-26 22:28 | -17.76001 | 177.43936 | 44 ft | 103 kts | 37° |
| 2026-04-26 22:29 | -17.75558 | 177.44292 | 55 ft | 56 kts | 38° |
| 2026-04-26 22:29 | -17.75311 | 177.44490 | 54 ft | 33 kts | 37° |
| 2026-04-26 22:29 | -17.75140 | 177.44629 | 50 ft | 20 kts | 38° |
| 2026-04-26 22:29 | -17.75028 | 177.44719 | 49 ft | 19 kts | 45° |
| 2026-04-26 22:30 | -17.75027 | 177.44842 | 50 ft | 17 kts | 103° |
| 2026-04-26 22:30 | -17.75046 | 177.44957 | 52 ft | 14 kts | 92° |
| 2026-04-26 22:30 | -17.75059 | 177.45039 | 54 ft | 2 kts | 104° |
| 2026-04-26 22:30 | -17.75061 | 177.45048 | 54 ft | 2 kts | 109° |
| 2026-04-26 22:31 | -17.75088 | 177.45068 | 55 ft | 5 kts | 176° |
| 2026-04-26 22:31 | -17.75113 | 177.45064 | 56 ft | 3 kts | 195° |
| 2026-04-26 22:31 | -17.75135 | 177.45058 | 57 ft | 0 kts | 194° |
| 2026-04-26 22:31 | -17.75136 | 177.45056 | 57 ft | 1 kts | 194° |
| 2026-04-26 22:32 | -17.75137 | 177.45056 | 57 ft | 0 kts | 195° |